createdAt,value
2022-09-12T00:01:08.792Z,99219.16
2022-09-12T00:11:15.053Z,99223.48
2022-09-12T00:21:21.964Z,99223.13
2022-09-12T00:31:29.158Z,99223.88
2022-09-12T00:41:37.122Z,99226.91
2022-09-12T00:51:47.454Z,99227.42
2022-09-12T01:01:54.407Z,99228.19
2022-09-12T01:12:03.022Z,99227.02
2022-09-12T01:22:21.709Z,99226.74
2022-09-12T01:32:38.825Z,99228.45
2022-09-12T01:42:52.953Z,99224.21
2022-09-12T01:53:02.157Z,99231.52
2022-09-12T02:03:13.637Z,99236.21
2022-09-12T02:13:24.820Z,99240.50
2022-09-12T02:23:32.680Z,99234.87
2022-09-12T02:33:44.863Z,99235.98
2022-09-12T02:43:51.570Z,99235.15
2022-09-12T02:53:58.106Z,99239.67
2022-09-12T03:04:22.632Z,99244.45
2022-09-12T03:14:46.751Z,99250.48
2022-09-12T03:25:02.774Z,99254.50
2022-09-12T03:35:09.201Z,99261.22
2022-09-12T03:45:16.590Z,99271.02
2022-09-12T03:55:22.566Z,99279.63
2022-09-12T04:05:28.407Z,99288.91
2022-09-12T04:15:34.161Z,99287.66
2022-09-12T04:25:39.780Z,99291.41
2022-09-12T04:35:45.524Z,99300.90
2022-09-12T04:45:52.031Z,99305.01
2022-09-12T04:56:02.403Z,99312.92
2022-09-12T05:06:11.155Z,99314.54
2022-09-12T05:16:18.789Z,99318.17
2022-09-12T05:26:25.306Z,99325.71
2022-09-12T05:36:31.778Z,99327.52
2022-09-12T05:46:41.603Z,99324.14
2022-09-12T05:56:48.213Z,99323.94
2022-09-12T06:06:53.954Z,99328.60
2022-09-12T06:16:59.790Z,99329.11
2022-09-12T06:27:05.639Z,99328.73
2022-09-12T06:37:11.313Z,99319.84
2022-09-12T06:47:16.979Z,99323.42
2022-09-12T06:57:22.594Z,99322.42
2022-09-12T07:07:28.369Z,99327.48
2022-09-12T07:17:33.917Z,99330.17
2022-09-12T07:27:39.645Z,99335.02
2022-09-12T07:37:45.377Z,99341.37
2022-09-12T07:47:54.149Z,99349.30
2022-09-12T07:57:59.809Z,99352.10
2022-09-12T08:08:05.768Z,99347.42
2022-09-12T08:18:11.534Z,99345.45
2022-09-12T08:28:17.170Z,99345.00
2022-09-12T08:38:23.813Z,99340.41
2022-09-12T08:48:29.588Z,99350.09
2022-09-12T08:58:40.575Z,99355.23
2022-09-12T09:09:04.125Z,99361.00
2022-09-12T09:19:17.440Z,99362.48
2022-09-12T09:29:26.144Z,99362.98
2022-09-12T09:39:47.034Z,99365.88
2022-09-12T09:49:52.825Z,99367.65
2022-09-12T09:59:58.527Z,99360.69
2022-09-12T10:10:17.006Z,99364.57
2022-09-12T10:20:39.085Z,99367.12
2022-09-12T10:30:54.820Z,99370.30
2022-09-12T10:41:02.772Z,99376.55
2022-09-12T10:51:16.022Z,99377.58
2022-09-12T11:01:38.040Z,99373.97
2022-09-12T11:11:54.872Z,99381.83
2022-09-12T11:22:20.117Z,99382.63
2022-09-12T11:32:55.355Z,99386.06
2022-09-12T11:43:06.751Z,99387.27
2022-09-12T11:53:20.239Z,99380.34
2022-09-12T12:03:34.120Z,99381.98
2022-09-12T12:13:46.052Z,99378.63
2022-09-12T12:24:13.312Z,99384.27
2022-09-12T12:34:30.577Z,99385.91
2022-09-12T12:44:52.616Z,99392.17
2022-09-12T12:55:01.282Z,99385.44
2022-09-12T13:05:19.043Z,99380.41
2022-09-12T13:15:51.437Z,99379.70
2022-09-12T13:25:58.433Z,99383.48
2022-09-12T13:36:28.225Z,99383.20
2022-09-12T13:46:35.892Z,99376.80
2022-09-12T13:56:51.019Z,99369.19
2022-09-12T14:06:57.057Z,99370.54
2022-09-12T14:17:16.357Z,99370.77
2022-09-12T14:27:26.152Z,99371.50
2022-09-12T14:37:32.145Z,99373.83
2022-09-12T14:47:41.864Z,99379.56
2022-09-12T14:57:48.008Z,99378.20
2022-09-12T15:08:02.386Z,99377.33
2022-09-12T15:18:08.439Z,99379.80
2022-09-12T15:28:20.167Z,99374.39
2022-09-12T15:38:26.775Z,99366.45
2022-09-12T15:48:32.530Z,99369.88
2022-09-12T15:58:49.824Z,99370.61
2022-09-12T16:09:00.602Z,99371.13
2022-09-12T16:19:06.603Z,99379.15
2022-09-12T16:29:14.484Z,99384.65
2022-09-12T16:39:20.561Z,99389.76
2022-09-12T16:49:26.277Z,99389.04
2022-09-12T16:59:32.035Z,99388.74
2022-09-12T17:09:37.693Z,99386.73
2022-09-12T17:19:43.673Z,99386.09
2022-09-12T17:29:49.899Z,99391.10
2022-09-12T17:39:55.796Z,99396.92
2022-09-12T17:50:30.034Z,99406.06
2022-09-12T18:00:47.898Z,99414.33
2022-09-12T18:10:54.027Z,99415.17
2022-09-12T18:20:59.801Z,99415.67
2022-09-12T18:31:10.442Z,99418.13
2022-09-12T18:41:18.589Z,99421.16
2022-09-12T18:51:26.898Z,99416.02
2022-09-12T19:01:34.180Z,99417.92
2022-09-12T19:11:48.691Z,99414.63
2022-09-12T19:21:54.383Z,99414.15
2022-09-12T19:32:00.043Z,99416.34
2022-09-12T19:42:05.949Z,99412.69
2022-09-12T19:52:14.435Z,99410.27
2022-09-12T20:02:25.721Z,99415.14
2022-09-12T20:12:31.774Z,99409.36
2022-09-12T20:22:40.144Z,99407.70
2022-09-12T20:32:46.109Z,99399.86
2022-09-12T20:42:52.032Z,99390.16
2022-09-12T20:52:57.728Z,99399.83
2022-09-12T21:03:04.534Z,99404.21
2022-09-12T21:13:11.245Z,99395.09
2022-09-12T21:23:16.845Z,99395.99
2022-09-12T21:33:23.944Z,99393.59
2022-09-12T21:43:29.610Z,99387.88
2022-09-12T21:53:35.412Z,99382.10
2022-09-12T22:03:42.571Z,99376.51
2022-09-12T22:13:48.267Z,99375.58
2022-09-12T22:24:11.958Z,99385.41
2022-09-12T22:34:18.066Z,99371.80
2022-09-12T22:44:23.734Z,99364.57
2022-09-12T22:54:30.133Z,99362.46
2022-09-12T23:04:35.727Z,99369.60
2022-09-12T23:14:41.369Z,99370.48
2022-09-12T23:24:47.159Z,99361.98
2022-09-12T23:34:53.005Z,99351.36
2022-09-12T23:44:58.607Z,99342.23
2022-09-12T23:55:04.396Z,99334.09
